sensor_id;sensor_type;location;lat;lon;timestamp;P1;durP1;ratioP1;P2;durP2;ratioP2
42140;SDS011;27809;51.864;5.646;2022-11-20T00:00:26;14.32;;;4.55;;
42140;SDS011;27809;51.864;5.646;2022-11-20T00:02:51;12.40;;;4.85;;
42140;SDS011;27809;51.864;5.646;2022-11-20T00:05:17;11.15;;;4.57;;
42140;SDS011;27809;51.864;5.646;2022-11-20T00:07:43;10.05;;;4.13;;
42140;SDS011;27809;51.864;5.646;2022-11-20T00:10:08;11.70;;;4.63;;
42140;SDS011;27809;51.864;5.646;2022-11-20T00:12:34;12.38;;;4.40;;
42140;SDS011;27809;51.864;5.646;2022-11-20T00:14:59;13.60;;;5.78;;
42140;SDS011;27809;51.864;5.646;2022-11-20T00:17:25;11.07;;;4.53;;
42140;SDS011;27809;51.864;5.646;2022-11-20T00:19:51;15.93;;;5.47;;
42140;SDS011;27809;51.864;5.646;2022-11-20T00:22:17;11.70;;;4.85;;
42140;SDS011;27809;51.864;5.646;2022-11-20T00:24:43;10.15;;;4.28;;
42140;SDS011;27809;51.864;5.646;2022-11-20T00:27:08;9.80;;;4.90;;
42140;SDS011;27809;51.864;5.646;2022-11-20T00:29:34;8.88;;;3.88;;
42140;SDS011;27809;51.864;5.646;2022-11-20T00:31:59;12.80;;;5.25;;
42140;SDS011;27809;51.864;5.646;2022-11-20T00:34:25;10.00;;;3.78;;
42140;SDS011;27809;51.864;5.646;2022-11-20T00:36:50;12.00;;;5.97;;
42140;SDS011;27809;51.864;5.646;2022-11-20T00:39:16;10.00;;;4.38;;
42140;SDS011;27809;51.864;5.646;2022-11-20T00:41:41;15.10;;;4.78;;
42140;SDS011;27809;51.864;5.646;2022-11-20T00:44:07;12.30;;;4.57;;
42140;SDS011;27809;51.864;5.646;2022-11-20T00:46:32;14.25;;;5.40;;
42140;SDS011;27809;51.864;5.646;2022-11-20T00:48:58;10.30;;;4.43;;
42140;SDS011;27809;51.864;5.646;2022-11-20T00:51:24;8.23;;;3.75;;
42140;SDS011;27809;51.864;5.646;2022-11-20T00:53:51;11.70;;;3.83;;
42140;SDS011;27809;51.864;5.646;2022-11-20T00:56:17;14.80;;;5.63;;
42140;SDS011;27809;51.864;5.646;2022-11-20T00:58:44;9.57;;;4.50;;
42140;SDS011;27809;51.864;5.646;2022-11-20T01:01:13;10.13;;;4.43;;
42140;SDS011;27809;51.864;5.646;2022-11-20T01:03:41;15.50;;;4.43;;
42140;SDS011;27809;51.864;5.646;2022-11-20T01:06:18;8.25;;;4.15;;
42140;SDS011;27809;51.864;5.646;2022-11-20T01:08:46;10.93;;;5.13;;
42140;SDS011;27809;51.864;5.646;2022-11-20T01:11:13;12.07;;;5.20;;
42140;SDS011;27809;51.864;5.646;2022-11-20T01:13:47;12.50;;;4.47;;
42140;SDS011;27809;51.864;5.646;2022-11-20T01:16:18;9.35;;;4.47;;
42140;SDS011;27809;51.864;5.646;2022-11-20T01:18:47;10.38;;;5.10;;
42140;SDS011;27809;51.864;5.646;2022-11-20T01:21:15;10.70;;;5.15;;
42140;SDS011;27809;51.864;5.646;2022-11-20T01:23:45;10.88;;;5.25;;
42140;SDS011;27809;51.864;5.646;2022-11-20T01:26:14;10.48;;;4.78;;
42140;SDS011;27809;51.864;5.646;2022-11-20T01:28:45;15.85;;;4.93;;
42140;SDS011;27809;51.864;5.646;2022-11-20T01:31:20;12.23;;;4.65;;
42140;SDS011;27809;51.864;5.646;2022-11-20T01:33:52;11.57;;;4.47;;
42140;SDS011;27809;51.864;5.646;2022-11-20T01:36:19;12.05;;;4.75;;
42140;SDS011;27809;51.864;5.646;2022-11-20T01:38:46;10.25;;;4.68;;
42140;SDS011;27809;51.864;5.646;2022-11-20T01:41:13;7.82;;;3.88;;
42140;SDS011;27809;51.864;5.646;2022-11-20T01:43:59;11.73;;;4.47;;
42140;SDS011;27809;51.864;5.646;2022-11-20T01:46:25;8.73;;;4.28;;
42140;SDS011;27809;51.864;5.646;2022-11-20T01:48:58;10.80;;;5.25;;
42140;SDS011;27809;51.864;5.646;2022-11-20T01:51:50;15.68;;;5.05;;
42140;SDS011;27809;51.864;5.646;2022-11-20T01:54:25;10.27;;;4.25;;
42140;SDS011;27809;51.864;5.646;2022-11-20T01:56:59;13.65;;;6.03;;
42140;SDS011;27809;51.864;5.646;2022-11-20T01:59:25;11.07;;;4.38;;
42140;SDS011;27809;51.864;5.646;2022-11-20T02:01:53;9.15;;;4.72;;
42140;SDS011;27809;51.864;5.646;2022-11-20T02:04:18;14.45;;;5.38;;
42140;SDS011;27809;51.864;5.646;2022-11-20T02:06:49;12.80;;;5.43;;
42140;SDS011;27809;51.864;5.646;2022-11-20T02:09:25;16.15;;;6.43;;
42140;SDS011;27809;51.864;5.646;2022-11-20T02:11:52;13.48;;;4.90;;
42140;SDS011;27809;51.864;5.646;2022-11-20T02:14:18;11.07;;;4.65;;
42140;SDS011;27809;51.864;5.646;2022-11-20T02:16:45;13.60;;;5.53;;
42140;SDS011;27809;51.864;5.646;2022-11-20T02:19:33;10.52;;;3.95;;
42140;SDS011;27809;51.864;5.646;2022-11-20T02:22:05;13.63;;;4.97;;
42140;SDS011;27809;51.864;5.646;2022-11-20T02:24:37;9.43;;;4.03;;
42140;SDS011;27809;51.864;5.646;2022-11-20T02:27:03;14.95;;;6.18;;
42140;SDS011;27809;51.864;5.646;2022-11-20T02:29:39;11.70;;;4.82;;
42140;SDS011;27809;51.864;5.646;2022-11-20T02:34:44;11.77;;;5.03;;
42140;SDS011;27809;51.864;5.646;2022-11-20T02:37:09;12.50;;;5.07;;
42140;SDS011;27809;51.864;5.646;2022-11-20T02:39:35;11.05;;;4.78;;
42140;SDS011;27809;51.864;5.646;2022-11-20T02:42:01;11.63;;;5.35;;
42140;SDS011;27809;51.864;5.646;2022-11-20T02:44:27;14.43;;;4.88;;
42140;SDS011;27809;51.864;5.646;2022-11-20T02:46:52;14.48;;;6.70;;
42140;SDS011;27809;51.864;5.646;2022-11-20T02:49:18;11.65;;;4.10;;
42140;SDS011;27809;51.864;5.646;2022-11-20T02:51:43;10.85;;;4.60;;
42140;SDS011;27809;51.864;5.646;2022-11-20T02:54:09;12.75;;;4.63;;
42140;SDS011;27809;51.864;5.646;2022-11-20T02:56:34;11.75;;;4.72;;
42140;SDS011;27809;51.864;5.646;2022-11-20T02:59:03;13.65;;;5.70;;
42140;SDS011;27809;51.864;5.646;2022-11-20T03:01:29;10.55;;;4.82;;
42140;SDS011;27809;51.864;5.646;2022-11-20T03:03:54;9.23;;;3.97;;
42140;SDS011;27809;51.864;5.646;2022-11-20T03:06:20;10.48;;;4.65;;
42140;SDS011;27809;51.864;5.646;2022-11-20T03:08:46;10.52;;;4.68;;
42140;SDS011;27809;51.864;5.646;2022-11-20T03:11:12;12.90;;;5.00;;
42140;SDS011;27809;51.864;5.646;2022-11-20T03:13:37;12.75;;;5.05;;
42140;SDS011;27809;51.864;5.646;2022-11-20T03:16:07;10.30;;;4.45;;
42140;SDS011;27809;51.864;5.646;2022-11-20T03:18:37;11.35;;;5.47;;
42140;SDS011;27809;51.864;5.646;2022-11-20T03:21:03;11.35;;;4.68;;
42140;SDS011;27809;51.864;5.646;2022-11-20T03:23:29;14.50;;;5.00;;
42140;SDS011;27809;51.864;5.646;2022-11-20T03:25:56;10.43;;;4.10;;
42140;SDS011;27809;51.864;5.646;2022-11-20T03:28:32;11.98;;;4.47;;
42140;SDS011;27809;51.864;5.646;2022-11-20T03:30:57;10.40;;;4.13;;
42140;SDS011;27809;51.864;5.646;2022-11-20T03:33:23;11.63;;;5.88;;
42140;SDS011;27809;51.864;5.646;2022-11-20T03:35:48;12.93;;;5.00;;
42140;SDS011;27809;51.864;5.646;2022-11-20T03:38:13;10.55;;;4.72;;
42140;SDS011;27809;51.864;5.646;2022-11-20T03:40:39;11.82;;;5.28;;
42140;SDS011;27809;51.864;5.646;2022-11-20T03:43:05;10.20;;;5.45;;
42140;SDS011;27809;51.864;5.646;2022-11-20T03:45:30;11.32;;;3.83;;
42140;SDS011;27809;51.864;5.646;2022-11-20T03:47:55;16.23;;;5.32;;
42140;SDS011;27809;51.864;5.646;2022-11-20T03:50:21;11.93;;;5.50;;
42140;SDS011;27809;51.864;5.646;2022-11-20T03:52:46;16.05;;;4.93;;
42140;SDS011;27809;51.864;5.646;2022-11-20T03:55:12;10.80;;;4.68;;
42140;SDS011;27809;51.864;5.646;2022-11-20T03:57:37;17.08;;;6.75;;
42140;SDS011;27809;51.864;5.646;2022-11-20T04:00:04;12.00;;;5.25;;
42140;SDS011;27809;51.864;5.646;2022-11-20T04:02:30;14.27;;;5.10;;
42140;SDS011;27809;51.864;5.646;2022-11-20T04:04:55;12.93;;;4.80;;
42140;SDS011;27809;51.864;5.646;2022-11-20T04:07:21;12.05;;;4.78;;
42140;SDS011;27809;51.864;5.646;2022-11-20T04:09:46;12.27;;;5.57;;
42140;SDS011;27809;51.864;5.646;2022-11-20T04:12:12;23.40;;;6.22;;
42140;SDS011;27809;51.864;5.646;2022-11-20T04:14:37;11.05;;;4.60;;
42140;SDS011;27809;51.864;5.646;2022-11-20T04:17:03;10.98;;;4.70;;
42140;SDS011;27809;51.864;5.646;2022-11-20T04:19:29;12.10;;;5.38;;
42140;SDS011;27809;51.864;5.646;2022-11-20T04:21:54;12.32;;;5.80;;
42140;SDS011;27809;51.864;5.646;2022-11-20T04:24:19;18.52;;;4.20;;
42140;SDS011;27809;51.864;5.646;2022-11-20T04:26:45;14.40;;;5.13;;
42140;SDS011;27809;51.864;5.646;2022-11-20T04:29:11;11.30;;;4.72;;
42140;SDS011;27809;51.864;5.646;2022-11-20T04:31:37;13.02;;;5.30;;
42140;SDS011;27809;51.864;5.646;2022-11-20T04:34:03;15.07;;;5.85;;
42140;SDS011;27809;51.864;5.646;2022-11-20T04:36:31;12.82;;;5.13;;
42140;SDS011;27809;51.864;5.646;2022-11-20T04:38:58;13.55;;;6.70;;
42140;SDS011;27809;51.864;5.646;2022-11-20T04:41:27;9.35;;;4.45;;
42140;SDS011;27809;51.864;5.646;2022-11-20T04:43:56;12.02;;;5.30;;
42140;SDS011;27809;51.864;5.646;2022-11-20T04:46:28;7.32;;;3.67;;
42140;SDS011;27809;51.864;5.646;2022-11-20T04:48:55;14.52;;;5.35;;
42140;SDS011;27809;51.864;5.646;2022-11-20T04:51:21;8.35;;;3.80;;
42140;SDS011;27809;51.864;5.646;2022-11-20T04:53:47;13.93;;;5.28;;
42140;SDS011;27809;51.864;5.646;2022-11-20T04:56:12;9.52;;;4.22;;
42140;SDS011;27809;51.864;5.646;2022-11-20T04:58:39;9.80;;;5.22;;
42140;SDS011;27809;51.864;5.646;2022-11-20T05:01:15;13.13;;;5.20;;
42140;SDS011;27809;51.864;5.646;2022-11-20T05:03:43;12.38;;;5.72;;
42140;SDS011;27809;51.864;5.646;2022-11-20T05:06:10;14.68;;;4.82;;
42140;SDS011;27809;51.864;5.646;2022-11-20T05:08:37;15.43;;;6.78;;
42140;SDS011;27809;51.864;5.646;2022-11-20T05:11:20;12.68;;;4.63;;
42140;SDS011;27809;51.864;5.646;2022-11-20T05:13:46;14.63;;;5.90;;
42140;SDS011;27809;51.864;5.646;2022-11-20T05:16:14;17.70;;;5.38;;
42140;SDS011;27809;51.864;5.646;2022-11-20T05:18:41;9.30;;;4.63;;
42140;SDS011;27809;51.864;5.646;2022-11-20T05:21:07;14.52;;;5.47;;
42140;SDS011;27809;51.864;5.646;2022-11-20T05:23:34;13.35;;;5.45;;
42140;SDS011;27809;51.864;5.646;2022-11-20T05:26:00;12.00;;;5.13;;
42140;SDS011;27809;51.864;5.646;2022-11-20T05:28:27;13.02;;;5.00;;
42140;SDS011;27809;51.864;5.646;2022-11-20T05:30:53;11.07;;;5.13;;
42140;SDS011;27809;51.864;5.646;2022-11-20T05:33:19;9.65;;;4.82;;
42140;SDS011;27809;51.864;5.646;2022-11-20T05:35:45;13.98;;;4.75;;
42140;SDS011;27809;51.864;5.646;2022-11-20T05:38:11;15.32;;;4.18;;
42140;SDS011;27809;51.864;5.646;2022-11-20T05:40:36;14.85;;;5.45;;
42140;SDS011;27809;51.864;5.646;2022-11-20T05:43:02;11.52;;;4.15;;
42140;SDS011;27809;51.864;5.646;2022-11-20T05:45:28;13.20;;;6.15;;
42140;SDS011;27809;51.864;5.646;2022-11-20T05:47:57;12.48;;;4.40;;
42140;SDS011;27809;51.864;5.646;2022-11-20T05:50:23;10.13;;;4.82;;
42140;SDS011;27809;51.864;5.646;2022-11-20T05:52:49;12.57;;;5.35;;
42140;SDS011;27809;51.864;5.646;2022-11-20T05:55:14;15.07;;;5.90;;
42140;SDS011;27809;51.864;5.646;2022-11-20T05:57:40;11.52;;;4.75;;
42140;SDS011;27809;51.864;5.646;2022-11-20T06:00:06;14.10;;;5.40;;
42140;SDS011;27809;51.864;5.646;2022-11-20T06:02:34;9.05;;;4.50;;
42140;SDS011;27809;51.864;5.646;2022-11-20T06:05:00;14.60;;;5.05;;
42140;SDS011;27809;51.864;5.646;2022-11-20T06:07:26;13.18;;;5.13;;
42140;SDS011;27809;51.864;5.646;2022-11-20T06:09:52;11.00;;;5.60;;
42140;SDS011;27809;51.864;5.646;2022-11-20T06:12:17;14.93;;;5.20;;
42140;SDS011;27809;51.864;5.646;2022-11-20T06:14:43;15.32;;;6.32;;
42140;SDS011;27809;51.864;5.646;2022-11-20T06:17:08;20.40;;;5.97;;
42140;SDS011;27809;51.864;5.646;2022-11-20T06:19:34;11.30;;;5.25;;
42140;SDS011;27809;51.864;5.646;2022-11-20T06:21:59;12.57;;;4.85;;
42140;SDS011;27809;51.864;5.646;2022-11-20T06:24:25;14.07;;;5.38;;
42140;SDS011;27809;51.864;5.646;2022-11-20T06:26:50;14.68;;;5.30;;
42140;SDS011;27809;51.864;5.646;2022-11-20T06:29:16;14.23;;;5.30;;
42140;SDS011;27809;51.864;5.646;2022-11-20T06:31:41;13.32;;;5.35;;
42140;SDS011;27809;51.864;5.646;2022-11-20T06:34:07;11.18;;;5.45;;
42140;SDS011;27809;51.864;5.646;2022-11-20T06:36:33;10.15;;;4.63;;
42140;SDS011;27809;51.864;5.646;2022-11-20T06:38:59;10.75;;;3.92;;
42140;SDS011;27809;51.864;5.646;2022-11-20T06:41:25;12.65;;;5.82;;
42140;SDS011;27809;51.864;5.646;2022-11-20T06:43:51;10.45;;;4.15;;
42140;SDS011;27809;51.864;5.646;2022-11-20T06:46:17;12.02;;;4.82;;
42140;SDS011;27809;51.864;5.646;2022-11-20T06:48:43;15.90;;;4.57;;
42140;SDS011;27809;51.864;5.646;2022-11-20T06:51:10;16.48;;;5.82;;
42140;SDS011;27809;51.864;5.646;2022-11-20T06:53:36;9.90;;;4.05;;
42140;SDS011;27809;51.864;5.646;2022-11-20T06:56:01;11.65;;;3.78;;
42140;SDS011;27809;51.864;5.646;2022-11-20T06:58:28;13.35;;;5.25;;
42140;SDS011;27809;51.864;5.646;2022-11-20T07:00:59;13.60;;;5.28;;
42140;SDS011;27809;51.864;5.646;2022-11-20T07:03:29;11.57;;;4.15;;
42140;SDS011;27809;51.864;5.646;2022-11-20T07:05:55;10.68;;;3.88;;
42140;SDS011;27809;51.864;5.646;2022-11-20T07:08:22;9.68;;;4.10;;
42140;SDS011;27809;51.864;5.646;2022-11-20T07:10:48;10.80;;;4.47;;
42140;SDS011;27809;51.864;5.646;2022-11-20T07:13:13;15.23;;;4.40;;
42140;SDS011;27809;51.864;5.646;2022-11-20T07:15:39;12.90;;;4.97;;
42140;SDS011;27809;51.864;5.646;2022-11-20T07:18:04;9.05;;;4.15;;
42140;SDS011;27809;51.864;5.646;2022-11-20T07:20:30;13.98;;;5.35;;
42140;SDS011;27809;51.864;5.646;2022-11-20T07:22:56;13.02;;;4.95;;
42140;SDS011;27809;51.864;5.646;2022-11-20T07:25:22;10.05;;;4.80;;
42140;SDS011;27809;51.864;5.646;2022-11-20T07:27:52;8.52;;;4.78;;
42140;SDS011;27809;51.864;5.646;2022-11-20T07:30:21;14.70;;;5.30;;
42140;SDS011;27809;51.864;5.646;2022-11-20T07:32:47;17.15;;;5.22;;
42140;SDS011;27809;51.864;5.646;2022-11-20T07:35:15;12.02;;;5.28;;
42140;SDS011;27809;51.864;5.646;2022-11-20T07:37:41;16.13;;;5.53;;
42140;SDS011;27809;51.864;5.646;2022-11-20T07:40:06;13.52;;;5.25;;
42140;SDS011;27809;51.864;5.646;2022-11-20T07:42:32;13.27;;;5.93;;
42140;SDS011;27809;51.864;5.646;2022-11-20T07:44:58;11.95;;;5.55;;
42140;SDS011;27809;51.864;5.646;2022-11-20T07:47:23;12.85;;;5.70;;
42140;SDS011;27809;51.864;5.646;2022-11-20T07:49:49;14.25;;;5.70;;
42140;SDS011;27809;51.864;5.646;2022-11-20T07:52:15;15.25;;;5.60;;
42140;SDS011;27809;51.864;5.646;2022-11-20T07:54:40;13.02;;;6.50;;
42140;SDS011;27809;51.864;5.646;2022-11-20T07:57:06;11.68;;;4.80;;
42140;SDS011;27809;51.864;5.646;2022-11-20T07:59:31;14.70;;;7.10;;
42140;SDS011;27809;51.864;5.646;2022-11-20T08:01:57;15.10;;;6.07;;
42140;SDS011;27809;51.864;5.646;2022-11-20T08:04:22;14.23;;;6.05;;
42140;SDS011;27809;51.864;5.646;2022-11-20T08:06:48;13.82;;;6.10;;
42140;SDS011;27809;51.864;5.646;2022-11-20T08:09:14;14.43;;;7.28;;
42140;SDS011;27809;51.864;5.646;2022-11-20T08:11:39;22.17;;;6.68;;
42140;SDS011;27809;51.864;5.646;2022-11-20T08:14:23;13.43;;;6.15;;
42140;SDS011;27809;51.864;5.646;2022-11-20T08:16:49;16.52;;;7.50;;
42140;SDS011;27809;51.864;5.646;2022-11-20T08:19:16;20.77;;;7.18;;
42140;SDS011;27809;51.864;5.646;2022-11-20T08:21:43;14.75;;;6.03;;
42140;SDS011;27809;51.864;5.646;2022-11-20T08:24:09;14.85;;;6.25;;
42140;SDS011;27809;51.864;5.646;2022-11-20T08:26:35;20.95;;;6.50;;
42140;SDS011;27809;51.864;5.646;2022-11-20T08:29:02;3.00;;;1.50;;
42140;SDS011;27809;51.864;5.646;2022-11-20T08:31:28;8.05;;;4.40;;
42140;SDS011;27809;51.864;5.646;2022-11-20T08:33:54;12.65;;;6.18;;
42140;SDS011;27809;51.864;5.646;2022-11-20T08:36:21;18.25;;;7.57;;
42140;SDS011;27809;51.864;5.646;2022-11-20T08:38:47;16.77;;;7.28;;
42140;SDS011;27809;51.864;5.646;2022-11-20T08:41:14;8.85;;;2.58;;
42140;SDS011;27809;51.864;5.646;2022-11-20T08:43:49;6.45;;;2.80;;
42140;SDS011;27809;51.864;5.646;2022-11-20T08:46:15;10.63;;;5.35;;
42140;SDS011;27809;51.864;5.646;2022-11-20T08:48:42;12.35;;;6.05;;
42140;SDS011;27809;51.864;5.646;2022-11-20T08:51:07;12.45;;;6.15;;
42140;SDS011;27809;51.864;5.646;2022-11-20T08:53:33;13.02;;;6.30;;
42140;SDS011;27809;51.864;5.646;2022-11-20T08:55:58;14.30;;;8.52;;
42140;SDS011;27809;51.864;5.646;2022-11-20T08:58:24;15.25;;;7.38;;
42140;SDS011;27809;51.864;5.646;2022-11-20T09:00:50;12.20;;;7.10;;
42140;SDS011;27809;51.864;5.646;2022-11-20T09:03:16;14.38;;;7.00;;
42140;SDS011;27809;51.864;5.646;2022-11-20T09:05:41;18.88;;;7.30;;
42140;SDS011;27809;51.864;5.646;2022-11-20T09:08:07;17.20;;;7.88;;
42140;SDS011;27809;51.864;5.646;2022-11-20T09:10:33;18.60;;;7.68;;
42140;SDS011;27809;51.864;5.646;2022-11-20T09:12:59;11.65;;;6.63;;
42140;SDS011;27809;51.864;5.646;2022-11-20T09:15:24;17.30;;;7.47;;
42140;SDS011;27809;51.864;5.646;2022-11-20T09:17:51;20.27;;;9.35;;
42140;SDS011;27809;51.864;5.646;2022-11-20T09:20:22;17.20;;;6.85;;
42140;SDS011;27809;51.864;5.646;2022-11-20T09:22:47;18.05;;;7.30;;
42140;SDS011;27809;51.864;5.646;2022-11-20T09:25:13;15.85;;;7.07;;
42140;SDS011;27809;51.864;5.646;2022-11-20T09:27:38;12.55;;;6.65;;
42140;SDS011;27809;51.864;5.646;2022-11-20T09:30:06;16.98;;;7.85;;
42140;SDS011;27809;51.864;5.646;2022-11-20T09:32:32;16.80;;;7.95;;
42140;SDS011;27809;51.864;5.646;2022-11-20T09:34:57;19.38;;;9.50;;
42140;SDS011;27809;51.864;5.646;2022-11-20T09:37:23;18.98;;;9.30;;
42140;SDS011;27809;51.864;5.646;2022-11-20T09:39:48;15.18;;;7.55;;
42140;SDS011;27809;51.864;5.646;2022-11-20T09:42:17;16.92;;;7.93;;
42140;SDS011;27809;51.864;5.646;2022-11-20T09:45:01;15.57;;;7.55;;
42140;SDS011;27809;51.864;5.646;2022-11-20T09:48:04;16.95;;;7.40;;
42140;SDS011;27809;51.864;5.646;2022-11-20T09:53:45;15.93;;;8.32;;
42140;SDS011;27809;51.864;5.646;2022-11-20T09:56:30;16.67;;;7.63;;
42140;SDS011;27809;51.864;5.646;2022-11-20T09:58:59;18.25;;;9.27;;
42140;SDS011;27809;51.864;5.646;2022-11-20T10:01:30;19.80;;;8.80;;
42140;SDS011;27809;51.864;5.646;2022-11-20T10:04:10;17.17;;;8.13;;
42140;SDS011;27809;51.864;5.646;2022-11-20T10:06:42;16.98;;;7.65;;
42140;SDS011;27809;51.864;5.646;2022-11-20T10:09:22;18.40;;;8.77;;
42140;SDS011;27809;51.864;5.646;2022-11-20T10:17:44;19.48;;;11.07;;
42140;SDS011;27809;51.864;5.646;2022-11-20T10:29:12;21.10;;;9.43;;
42140;SDS011;27809;51.864;5.646;2022-11-20T10:31:41;25.30;;;11.65;;
42140;SDS011;27809;51.864;5.646;2022-11-20T10:34:15;18.50;;;9.10;;
42140;SDS011;27809;51.864;5.646;2022-11-20T10:36:48;19.23;;;9.95;;
42140;SDS011;27809;51.864;5.646;2022-11-20T10:42:26;21.65;;;10.63;;
42140;SDS011;27809;51.864;5.646;2022-11-20T10:45:09;17.83;;;9.13;;
42140;SDS011;27809;51.864;5.646;2022-11-20T10:47:38;22.73;;;10.00;;
42140;SDS011;27809;51.864;5.646;2022-11-20T10:50:04;20.13;;;9.07;;
42140;SDS011;27809;51.864;5.646;2022-11-20T10:52:41;24.02;;;10.65;;
42140;SDS011;27809;51.864;5.646;2022-11-20T11:00:32;22.95;;;10.57;;
42140;SDS011;27809;51.864;5.646;2022-11-20T11:02:58;18.73;;;8.82;;
42140;SDS011;27809;51.864;5.646;2022-11-20T11:05:37;23.08;;;11.73;;
42140;SDS011;27809;51.864;5.646;2022-11-20T11:08:13;20.48;;;9.95;;
42140;SDS011;27809;51.864;5.646;2022-11-20T11:10:46;22.38;;;12.23;;
42140;SDS011;27809;51.864;5.646;2022-11-20T11:13:28;19.10;;;10.05;;
42140;SDS011;27809;51.864;5.646;2022-11-20T11:15:55;24.92;;;11.00;;
42140;SDS011;27809;51.864;5.646;2022-11-20T11:18:23;23.95;;;11.75;;
42140;SDS011;27809;51.864;5.646;2022-11-20T11:20:52;18.48;;;10.20;;
42140;SDS011;27809;51.864;5.646;2022-11-20T11:23:26;20.65;;;9.80;;
42140;SDS011;27809;51.864;5.646;2022-11-20T11:25:58;22.30;;;10.93;;
42140;SDS011;27809;51.864;5.646;2022-11-20T11:28:25;24.58;;;10.85;;
42140;SDS011;27809;51.864;5.646;2022-11-20T11:30:52;26.80;;;12.00;;
42140;SDS011;27809;51.864;5.646;2022-11-20T11:33:20;22.73;;;10.70;;
42140;SDS011;27809;51.864;5.646;2022-11-20T11:35:54;24.10;;;10.25;;
42140;SDS011;27809;51.864;5.646;2022-11-20T11:38:39;23.40;;;11.38;;
42140;SDS011;27809;51.864;5.646;2022-11-20T11:41:09;26.88;;;11.93;;
42140;SDS011;27809;51.864;5.646;2022-11-20T11:43:48;23.60;;;13.35;;
42140;SDS011;27809;51.864;5.646;2022-11-20T11:46:35;28.17;;;11.55;;
42140;SDS011;27809;51.864;5.646;2022-11-20T11:51:38;20.65;;;10.30;;
42140;SDS011;27809;51.864;5.646;2022-11-20T11:54:36;23.92;;;10.90;;
42140;SDS011;27809;51.864;5.646;2022-11-20T11:57:10;27.52;;;10.93;;
42140;SDS011;27809;51.864;5.646;2022-11-20T11:59:44;21.85;;;11.00;;
42140;SDS011;27809;51.864;5.646;2022-11-20T12:04:58;20.15;;;10.80;;
42140;SDS011;27809;51.864;5.646;2022-11-20T12:08:17;24.42;;;11.98;;
42140;SDS011;27809;51.864;5.646;2022-11-20T12:10:23;26.05;;;11.80;;
42140;SDS011;27809;51.864;5.646;2022-11-20T12:13:26;23.13;;;11.75;;
42140;SDS011;27809;51.864;5.646;2022-11-20T12:15:56;22.40;;;10.60;;
42140;SDS011;27809;51.864;5.646;2022-11-20T12:18:22;24.75;;;12.10;;
42140;SDS011;27809;51.864;5.646;2022-11-20T12:23:44;24.25;;;12.73;;
42140;SDS011;27809;51.864;5.646;2022-11-20T12:26:31;34.88;;;13.75;;
42140;SDS011;27809;51.864;5.646;2022-11-20T12:29:03;31.23;;;12.88;;
42140;SDS011;27809;51.864;5.646;2022-11-20T12:31:40;29.55;;;14.10;;
42140;SDS011;27809;51.864;5.646;2022-11-20T12:36:56;31.88;;;15.43;;
42140;SDS011;27809;51.864;5.646;2022-11-20T12:39:35;35.13;;;14.20;;
42140;SDS011;27809;51.864;5.646;2022-11-20T12:53:20;31.20;;;14.63;;
42140;SDS011;27809;51.864;5.646;2022-11-20T12:56:04;33.80;;;13.27;;
42140;SDS011;27809;51.864;5.646;2022-11-20T13:01:55;36.67;;;17.60;;
42140;SDS011;27809;51.864;5.646;2022-11-20T13:07:30;42.03;;;17.20;;
42140;SDS011;27809;51.864;5.646;2022-11-20T13:09:57;31.20;;;12.95;;
42140;SDS011;27809;51.864;5.646;2022-11-20T13:15:18;27.73;;;12.90;;
42140;SDS011;27809;51.864;5.646;2022-11-20T13:20:21;30.55;;;13.23;;
42140;SDS011;27809;51.864;5.646;2022-11-20T13:22:48;30.33;;;13.63;;
42140;SDS011;27809;51.864;5.646;2022-11-20T13:25:29;31.13;;;14.80;;
42140;SDS011;27809;51.864;5.646;2022-11-20T13:27:57;31.38;;;14.13;;
42140;SDS011;27809;51.864;5.646;2022-11-20T13:30:25;30.08;;;14.82;;
42140;SDS011;27809;51.864;5.646;2022-11-20T13:32:53;34.42;;;14.25;;
42140;SDS011;27809;51.864;5.646;2022-11-20T13:38:06;38.15;;;13.52;;
42140;SDS011;27809;51.864;5.646;2022-11-20T13:40:35;24.92;;;12.88;;
42140;SDS011;27809;51.864;5.646;2022-11-20T13:43:17;29.13;;;12.88;;
42140;SDS011;27809;51.864;5.646;2022-11-20T13:45:55;24.63;;;13.27;;
42140;SDS011;27809;51.864;5.646;2022-11-20T13:48:26;22.85;;;11.55;;
42140;SDS011;27809;51.864;5.646;2022-11-20T13:51:09;28.30;;;12.13;;
42140;SDS011;27809;51.864;5.646;2022-11-20T13:59:36;26.42;;;12.02;;
42140;SDS011;27809;51.864;5.646;2022-11-20T14:02:25;29.17;;;12.38;;
42140;SDS011;27809;51.864;5.646;2022-11-20T14:04:54;26.65;;;11.60;;
42140;SDS011;27809;51.864;5.646;2022-11-20T14:07:24;33.15;;;13.95;;
42140;SDS011;27809;51.864;5.646;2022-11-20T14:09:54;34.40;;;12.68;;
42140;SDS011;27809;51.864;5.646;2022-11-20T14:12:22;38.17;;;12.90;;
42140;SDS011;27809;51.864;5.646;2022-11-20T14:14:53;29.20;;;12.55;;
42140;SDS011;27809;51.864;5.646;2022-11-20T14:19:54;28.00;;;11.38;;
42140;SDS011;27809;51.864;5.646;2022-11-20T14:22:25;33.92;;;13.27;;
42140;SDS011;27809;51.864;5.646;2022-11-20T14:27:26;23.52;;;9.80;;
42140;SDS011;27809;51.864;5.646;2022-11-20T14:29:52;32.50;;;13.77;;
42140;SDS011;27809;51.864;5.646;2022-11-20T14:32:18;29.23;;;12.95;;
42140;SDS011;27809;51.864;5.646;2022-11-20T14:34:47;29.90;;;12.43;;
42140;SDS011;27809;51.864;5.646;2022-11-20T14:37:22;31.40;;;15.38;;
42140;SDS011;27809;51.864;5.646;2022-11-20T14:39:55;32.08;;;13.07;;
42140;SDS011;27809;51.864;5.646;2022-11-20T14:42:22;38.20;;;15.18;;
42140;SDS011;27809;51.864;5.646;2022-11-20T14:44:49;37.30;;;15.93;;
42140;SDS011;27809;51.864;5.646;2022-11-20T14:47:18;32.05;;;12.77;;
42140;SDS011;27809;51.864;5.646;2022-11-20T14:49:48;44.08;;;17.15;;
42140;SDS011;27809;51.864;5.646;2022-11-20T14:52:16;18.98;;;7.93;;
42140;SDS011;27809;51.864;5.646;2022-11-20T14:54:44;26.58;;;11.90;;
42140;SDS011;27809;51.864;5.646;2022-11-20T14:57:24;28.52;;;13.43;;
42140;SDS011;27809;51.864;5.646;2022-11-20T15:02:52;36.10;;;13.88;;
42140;SDS011;27809;51.864;5.646;2022-11-20T15:05:19;33.15;;;14.65;;
42140;SDS011;27809;51.864;5.646;2022-11-20T15:07:49;35.78;;;15.13;;
42140;SDS011;27809;51.864;5.646;2022-11-20T15:10:36;34.40;;;14.18;;
42140;SDS011;27809;51.864;5.646;2022-11-20T15:13:04;40.42;;;16.45;;
42140;SDS011;27809;51.864;5.646;2022-11-20T15:15:38;40.42;;;14.45;;
42140;SDS011;27809;51.864;5.646;2022-11-20T15:18:12;31.13;;;14.77;;
42140;SDS011;27809;51.864;5.646;2022-11-20T15:20:49;38.30;;;15.73;;
42140;SDS011;27809;51.864;5.646;2022-11-20T15:37:08;43.55;;;16.60;;
42140;SDS011;27809;51.864;5.646;2022-11-20T15:39:33;41.13;;;17.88;;
42140;SDS011;27809;51.864;5.646;2022-11-20T15:41:59;33.55;;;15.20;;
42140;SDS011;27809;51.864;5.646;2022-11-20T15:44:24;36.83;;;15.18;;
42140;SDS011;27809;51.864;5.646;2022-11-20T15:46:50;32.67;;;14.25;;
42140;SDS011;27809;51.864;5.646;2022-11-20T15:49:16;39.63;;;14.50;;
42140;SDS011;27809;51.864;5.646;2022-11-20T15:51:44;36.45;;;15.60;;
42140;SDS011;27809;51.864;5.646;2022-11-20T15:54:13;39.60;;;16.98;;
42140;SDS011;27809;51.864;5.646;2022-11-20T15:56:47;34.83;;;16.00;;
42140;SDS011;27809;51.864;5.646;2022-11-20T15:59:13;30.67;;;14.30;;
42140;SDS011;27809;51.864;5.646;2022-11-20T16:01:39;33.42;;;14.32;;
42140;SDS011;27809;51.864;5.646;2022-11-20T16:04:09;23.00;;;11.88;;
42140;SDS011;27809;51.864;5.646;2022-11-20T16:06:39;27.63;;;12.35;;
42140;SDS011;27809;51.864;5.646;2022-11-20T16:09:05;26.65;;;13.77;;
42140;SDS011;27809;51.864;5.646;2022-11-20T16:11:30;25.90;;;11.05;;
42140;SDS011;27809;51.864;5.646;2022-11-20T16:14:04;29.63;;;14.07;;